Urbana, Illinois
Current Conditions -  °F | °C
As of 12:53 PM on Saturday 25 Oct 2014 (Local Time) from KCMI Reporting Station
Clear Clear  
Wind Chill: 23°   Ceiling: Unl
Heat Index: 23°   Visibility: 10mi
Dew Point: 13°   Wind: 10mph
Humidity: 55%   Direction: 280°W
Pressure: 30"   Gusts: NA
Location:  40.12°N, 88.2°W
Report Text: KCMI 251753Z 28009KT 10SM CLR 23/13 A3000 RMK AO2 SLP156 T02280133 10228 20094 58001 $
Loading
Personal Weather Stations






























Interactive Weather Map
Tropical Storm Tracking
New forecast layout! Learn more

10-Day Weather Forecast

Advertisements
Track Severe Weather on mobile